Stephanie A Settoon — WDD9594 — position and weather

sailwx.info

Track history (hours):
 
Tides and Currents Weather Stations Pressure Air Temp Water Temp Dewpoint Dewpoint Depression Visibility Wind Speed Wind Dir Waves Ship Positions

Stephanie A Settoon

Owner: Settoon Towing LLC, Houma, LA. More information available from US FCC via Universal Licensing System and Coast Guard Vessel Documentation Center.

Last reported at 2017-Oct-18 02:25 UTC. Time now 2017-Oct-20 06:57 UTC.
Position N 29°34' W 090°56'.

Length 15 m.

Type: Other ship. MMSI: 367313530.

Date/timePositionNaut miles runAvg speedWind from/ knotsBaromVisibWave heightAir tempDewpointWater temp
2017-Oct-18 02:25N 29°34' W 090°56'4 6.5
2017-Oct-18 01:46N 29°32' W 090°52'2 6.6
2017-Oct-18 01:31N 29°32' W 090°50'3 6.7
2017-Oct-18 01:01N 29°32' W 090°46'3 6.0
2017-Oct-18 00:30N 29°34' W 090°43'3 5.9
2017-Oct-18 00:01N 29°31' W 090°42'3 7.0
2017-Oct-17 23:30N 29°28' W 090°43'  
2017-Oct-14 14:59N 29°25' W 090°44'3 6.8
2017-Oct-14 14:30N 29°28' W 090°43'3 6.7
2017-Oct-14 14:00N 29°31' W 090°42'3 5.7
2017-Oct-14 13:30N 29°34' W 090°43'1 1.6
2017-Oct-14 13:00N 29°35' W 090°43'0 0.0
2017-Oct-14 12:30N 29°35' W 090°43'0 0.0
2017-Oct-14 12:00N 29°35' W 090°43'0 0.0
2017-Oct-14 11:30N 29°35' W 090°43'0 0.0
2017-Oct-14 11:00N 29°35' W 090°43'0 0.0
2017-Oct-14 10:30N 29°35' W 090°43'0 0.0
2017-Oct-14 10:00N 29°35' W 090°43'0 0.0
2017-Oct-14 09:30N 29°35' W 090°43'0 0.0
2017-Oct-14 09:00N 29°35' W 090°43'0 0.0
2017-Oct-14 08:30N 29°35' W 090°43'0 0.0
2017-Oct-14 08:00N 29°35' W 090°43'0 0.0
2017-Oct-14 07:30N 29°35' W 090°43'0 0.0
2017-Oct-14 07:00N 29°35' W 090°43'0 0.0
2017-Oct-14 06:30N 29°35' W 090°43'0 0.0
2017-Oct-14 06:00N 29°35' W 090°43'0 0.0
2017-Oct-14 05:30N 29°35' W 090°43'0 0.0
2017-Oct-14 05:00N 29°35' W 090°43'0 0.0
2017-Oct-14 04:30N 29°35' W 090°43'0 0.0
2017-Oct-14 04:00N 29°35' W 090°43'0 0.0
2017-Oct-14 03:30N 29°35' W 090°43'0 0.0
2017-Oct-14 03:00N 29°35' W 090°43'0 0.0
2017-Oct-14 02:30N 29°35' W 090°43'0 0.0
2017-Oct-14 02:00N 29°35' W 090°43'0 0.0
2017-Oct-14 01:28N 29°35' W 090°43'0 0.0
2017-Oct-14 01:01N 29°35' W 090°43'0 0.0
2017-Oct-14 00:30N 29°35' W 090°43'0 0.0
2017-Oct-14 00:00N 29°35' W 090°43'0 0.0
2017-Oct-13 23:30N 29°35' W 090°43'0 0.0
2017-Oct-13 23:00N 29°35' W 090°43'0 0.0
2017-Oct-13 22:30N 29°35' W 090°43'0 0.0
2017-Oct-13 22:00N 29°35' W 090°43'0 0.0
2017-Oct-13 21:30N 29°35' W 090°43'2 3.8
2017-Oct-13 21:00N 29°34' W 090°45'0 0.7
2017-Oct-13 20:30N 29°33' W 090°45'3 6.0
2017-Oct-13 20:00N 29°32' W 090°48'7 0.2
2017-Oct-12 03:00N 29°34' W 090°56'4 5.6
2017-Oct-12 02:17N 29°32' W 090°52'1 5.5
2017-Oct-12 02:00N 29°32' W 090°50'3 5.4
2017-Oct-12 01:30N 29°32' W 090°47'2 4.6
2017-Oct-12 01:00N 29°34' W 090°45'2 4.5
2017-Oct-12 00:30N 29°35' W 090°43'2 4.0
2017-Oct-12 00:00N 29°36' W 090°41'3 5.5
2017-Oct-11 23:30N 29°35' W 090°38'3 5.3
2017-Oct-11 23:00N 29°35' W 090°35'3 5.6
2017-Oct-11 22:30N 29°34' W 090°32'3 5.6
2017-Oct-11 22:00N 29°34' W 090°29'12 0.5
2017-Oct-11 00:00N 29°35' W 090°43'2 3.7
2017-Oct-10 23:31N 29°34' W 090°44'3 6.0
2017-Oct-10 23:00N 29°32' W 090°47'  
Track history (hours):
 
Tides and Currents Weather Stations Pressure Air Temp Water Temp Dewpoint Dewpoint Depression Visibility Wind Speed Wind Dir Waves Ship Positions

Stephanie A Settoon

Owner: Settoon Towing LLC, Houma, LA. More information available from US FCC via Universal Licensing System and Coast Guard Vessel Documentation Center.

Last reported at 2017-Oct-18 02:25 UTC. Time now 2017-Oct-20 06:57 UTC.
Position N 29°34' W 090°56'.

Length 15 m.

Type: Other ship. MMSI: 367313530.

Date/timePositionNaut miles runAvg speedWind from/ knotsBaromVisibWave heightAir tempDewpointWater temp
2017-Oct-18 02:25N 29°34' W 090°56'4 6.5
2017-Oct-18 01:46N 29°32' W 090°52'2 6.6
2017-Oct-18 01:31N 29°32' W 090°50'3 6.7
2017-Oct-18 01:01N 29°32' W 090°46'3 6.0
2017-Oct-18 00:30N 29°34' W 090°43'3 5.9
2017-Oct-18 00:01N 29°31' W 090°42'3 7.0
2017-Oct-17 23:30N 29°28' W 090°43'  
2017-Oct-14 14:59N 29°25' W 090°44'3 6.8
2017-Oct-14 14:30N 29°28' W 090°43'3 6.7
2017-Oct-14 14:00N 29°31' W 090°42'3 5.7
2017-Oct-14 13:30N 29°34' W 090°43'1 1.6
2017-Oct-14 13:00N 29°35' W 090°43'0 0.0
2017-Oct-14 12:30N 29°35' W 090°43'0 0.0
2017-Oct-14 12:00N 29°35' W 090°43'0 0.0
2017-Oct-14 11:30N 29°35' W 090°43'0 0.0
2017-Oct-14 11:00N 29°35' W 090°43'0 0.0
2017-Oct-14 10:30N 29°35' W 090°43'0 0.0
2017-Oct-14 10:00N 29°35' W 090°43'0 0.0
2017-Oct-14 09:30N 29°35' W 090°43'0 0.0
2017-Oct-14 09:00N 29°35' W 090°43'0 0.0
2017-Oct-14 08:30N 29°35' W 090°43'0 0.0
2017-Oct-14 08:00N 29°35' W 090°43'0 0.0
2017-Oct-14 07:30N 29°35' W 090°43'0 0.0
2017-Oct-14 07:00N 29°35' W 090°43'0 0.0
2017-Oct-14 06:30N 29°35' W 090°43'0 0.0
2017-Oct-14 06:00N 29°35' W 090°43'0 0.0
2017-Oct-14 05:30N 29°35' W 090°43'0 0.0
2017-Oct-14 05:00N 29°35' W 090°43'0 0.0
2017-Oct-14 04:30N 29°35' W 090°43'0 0.0
2017-Oct-14 04:00N 29°35' W 090°43'0 0.0
2017-Oct-14 03:30N 29°35' W 090°43'0 0.0
2017-Oct-14 03:00N 29°35' W 090°43'0 0.0
2017-Oct-14 02:30N 29°35' W 090°43'0 0.0
2017-Oct-14 02:00N 29°35' W 090°43'0 0.0
2017-Oct-14 01:28N 29°35' W 090°43'0 0.0
2017-Oct-14 01:01N 29°35' W 090°43'0 0.0
2017-Oct-14 00:30N 29°35' W 090°43'0 0.0
2017-Oct-14 00:00N 29°35' W 090°43'0 0.0
2017-Oct-13 23:30N 29°35' W 090°43'0 0.0
2017-Oct-13 23:00N 29°35' W 090°43'0 0.0
2017-Oct-13 22:30N 29°35' W 090°43'0 0.0
2017-Oct-13 22:00N 29°35' W 090°43'0 0.0
2017-Oct-13 21:30N 29°35' W 090°43'2 3.8
2017-Oct-13 21:00N 29°34' W 090°45'0 0.7
2017-Oct-13 20:30N 29°33' W 090°45'3 6.0
2017-Oct-13 20:00N 29°32' W 090°48'7 0.2
2017-Oct-12 03:00N 29°34' W 090°56'4 5.6
2017-Oct-12 02:17N 29°32' W 090°52'1 5.5
2017-Oct-12 02:00N 29°32' W 090°50'3 5.4
2017-Oct-12 01:30N 29°32' W 090°47'2 4.6
2017-Oct-12 01:00N 29°34' W 090°45'2 4.5
2017-Oct-12 00:30N 29°35' W 090°43'2 4.0
2017-Oct-12 00:00N 29°36' W 090°41'3 5.5
2017-Oct-11 23:30N 29°35' W 090°38'3 5.3
2017-Oct-11 23:00N 29°35' W 090°35'3 5.6
2017-Oct-11 22:30N 29°34' W 090°32'3 5.6
2017-Oct-11 22:00N 29°34' W 090°29'12 0.5
2017-Oct-11 00:00N 29°35' W 090°43'2 3.7
2017-Oct-10 23:31N 29°34' W 090°44'3 6.0
2017-Oct-10 23:00N 29°32' W 090°47'  

Dump ship's entire track history